createdAt,value
2023-02-02T00:02:08.154Z,101256.13
2023-02-02T00:04:38.520Z,101264.94
2023-02-02T00:07:09.922Z,101273.31
2023-02-02T00:09:40.251Z,101277.00
2023-02-02T00:12:11.671Z,101287.47
2023-02-02T00:14:42.401Z,101296.22
2023-02-02T00:17:13.656Z,101310.72
2023-02-02T00:19:47.644Z,101309.72
2023-02-02T00:22:20.534Z,101328.91
2023-02-02T00:24:50.754Z,101324.69
2023-02-02T00:27:23.453Z,101332.63
2023-02-02T00:29:54.697Z,101338.69
2023-02-02T00:32:25.922Z,101346.09
2023-02-02T00:34:59.357Z,101339.19
2023-02-02T00:37:30.017Z,101332.63
2023-02-02T00:40:00.768Z,101344.75
2023-02-02T00:42:32.266Z,101341.06
2023-02-02T00:45:18.790Z,101342.41
2023-02-02T00:47:50.745Z,101349.13
2023-02-02T00:50:22.917Z,101335.66
2023-02-02T00:52:54.199Z,101334.00
2023-02-02T00:55:25.188Z,101342.25
2023-02-02T00:57:56.039Z,101341.03
2023-02-02T01:00:28.168Z,101333.81
2023-02-02T01:03:05.207Z,101333.94
2023-02-02T01:05:38.523Z,101335.81
2023-02-02T01:08:09.478Z,101337.28
2023-02-02T01:10:40.506Z,101334.56
2023-02-02T01:13:10.913Z,101330.19
2023-02-02T01:15:41.504Z,101320.91
2023-02-02T01:18:12.278Z,101328.16
2023-02-02T01:20:42.978Z,101315.97
2023-02-02T01:23:16.595Z,101300.41
2023-02-02T01:25:47.854Z,101306.22
2023-02-02T01:28:18.516Z,101306.53
2023-02-02T01:30:49.932Z,101301.16
2023-02-02T01:33:20.732Z,101302.00
2023-02-02T01:35:57.426Z,101303.84
2023-02-02T01:38:27.952Z,101293.53
2023-02-02T01:40:59.360Z,101293.13
2023-02-02T01:43:50.456Z,101290.06
2023-02-02T01:46:24.313Z,101281.03
2023-02-02T01:49:18.244Z,101283.97
2023-02-02T01:52:07.903Z,101277.28
2023-02-02T01:54:45.616Z,101273.94
2023-02-02T01:57:24.937Z,101270.00
2023-02-02T01:59:57.036Z,101267.41
2023-02-02T02:02:28.977Z,101258.91
2023-02-02T02:05:02.986Z,101266.59
2023-02-02T02:07:33.857Z,101259.41
2023-02-02T02:10:04.434Z,101247.84
2023-02-02T02:12:35.729Z,101253.28
2023-02-02T02:15:26.587Z,101253.28
2023-02-02T02:18:13.367Z,101253.63
2023-02-02T02:21:23.155Z,101261.28
2023-02-02T02:24:42.859Z,101254.31
2023-02-02T02:27:43.440Z,101259.94
2023-02-02T02:30:17.269Z,101262.97
2023-02-02T02:33:15.156Z,101267.66
2023-02-02T02:36:06.939Z,101255.09
2023-02-02T02:38:44.729Z,101256.38
2023-02-02T02:41:23.639Z,101259.00
2023-02-02T02:44:00.733Z,101259.09
2023-02-02T02:46:32.561Z,101253.97
2023-02-02T02:49:04.122Z,101261.22
2023-02-02T02:51:54.621Z,101261.41
2023-02-02T02:54:44.158Z,101256.66
2023-02-02T02:57:36.285Z,101252.34
2023-02-02T03:00:28.394Z,101249.47
2023-02-02T03:03:16.316Z,101256.19
2023-02-02T03:05:56.251Z,101248.06
2023-02-02T03:08:42.551Z,101239.94
2023-02-02T03:11:15.672Z,101233.13
2023-02-02T03:13:46.330Z,101239.41
2023-02-02T03:16:18.414Z,101236.78
2023-02-02T03:18:48.929Z,101236.59
2023-02-02T03:21:21.939Z,101223.13
2023-02-02T03:23:52.563Z,101222.19
2023-02-02T03:26:23.759Z,101208.56
2023-02-02T03:28:56.228Z,101206.50
2023-02-02T03:31:31.803Z,101203.66
2023-02-02T03:34:02.765Z,101189.38
2023-02-02T03:36:33.935Z,101178.78
2023-02-02T03:39:04.913Z,101167.44
2023-02-02T03:41:35.945Z,101180.59
2023-02-02T03:44:07.005Z,101154.41
2023-02-02T03:46:37.821Z,101162.38
2023-02-02T03:49:08.607Z,101152.59
2023-02-02T03:51:40.370Z,101144.56
2023-02-02T03:54:12.085Z,101149.22
2023-02-02T03:56:43.607Z,101131.75
2023-02-02T03:59:14.865Z,101134.91
2023-02-02T04:01:45.658Z,101135.78
2023-02-02T04:04:16.751Z,101128.94
2023-02-02T04:06:51.220Z,101115.22
2023-02-02T04:09:22.339Z,101118.63
2023-02-02T04:11:52.802Z,101110.72
2023-02-02T04:14:23.377Z,101104.78
2023-02-02T04:16:54.482Z,101097.84
2023-02-02T04:19:25.084Z,101099.69
2023-02-02T04:21:56.179Z,101100.06
2023-02-02T04:24:27.927Z,101102.16
2023-02-02T04:26:58.631Z,101091.47
2023-02-02T04:29:30.750Z,101083.34
2023-02-02T04:32:01.633Z,101080.22
2023-02-02T04:34:34.909Z,101069.22
2023-02-02T04:37:05.385Z,101070.09
2023-02-02T04:39:35.975Z,101067.59
2023-02-02T04:42:08.420Z,101064.94
2023-02-02T04:44:39.103Z,101064.28
2023-02-02T04:47:10.162Z,101056.97
2023-02-02T04:49:44.379Z,101051.94
2023-02-02T04:52:15.507Z,101033.38
2023-02-02T04:54:46.577Z,101031.69
2023-02-02T04:57:17.110Z,101027.47
2023-02-02T04:59:48.100Z,101021.25
2023-02-02T05:02:18.926Z,101012.25
2023-02-02T05:04:49.453Z,101000.38
2023-02-02T05:07:29.861Z,101003.34
2023-02-02T05:10:01.172Z,100990.81
2023-02-02T05:12:32.311Z,101003.97
2023-02-02T05:15:04.459Z,100988.97
2023-02-02T05:17:34.830Z,100984.19
2023-02-02T05:20:06.436Z,100980.44
2023-02-02T05:22:36.912Z,100972.56
2023-02-02T05:25:08.881Z,100968.44
2023-02-02T05:27:39.812Z,100961.00
2023-02-02T05:30:14.862Z,100952.03
2023-02-02T05:32:47.076Z,100963.09
2023-02-02T05:35:17.828Z,100943.06
2023-02-02T05:37:48.878Z,100954.25
2023-02-02T05:40:19.751Z,100938.81
2023-02-02T05:42:53.151Z,100936.91
2023-02-02T05:45:26.844Z,100936.69
2023-02-02T05:47:57.754Z,100921.25
2023-02-02T05:50:28.476Z,100918.75
2023-02-02T05:53:08.014Z,100920.16
2023-02-02T05:55:38.762Z,100920.38
2023-02-02T05:58:09.565Z,100921.44
2023-02-02T06:00:43.449Z,100916.88
2023-02-02T06:03:14.784Z,100923.53
2023-02-02T06:05:45.828Z,100911.84
2023-02-02T06:08:16.414Z,100919.16
2023-02-02T06:10:47.485Z,100903.50
2023-02-02T06:13:17.925Z,100909.13
2023-02-02T06:15:48.441Z,100904.75
2023-02-02T06:18:30.892Z,100902.69
2023-02-02T06:21:02.567Z,100894.94
2023-02-02T06:23:34.951Z,100893.69
2023-02-02T06:26:05.809Z,100891.22
2023-02-02T06:28:37.121Z,100893.09
2023-02-02T06:31:09.613Z,100888.78
2023-02-02T06:33:41.247Z,100885.28
2023-02-02T06:36:11.718Z,100879.25
2023-02-02T06:38:42.734Z,100883.84
2023-02-02T06:41:13.864Z,100888.44
2023-02-02T06:43:44.280Z,100882.63
2023-02-02T06:46:14.886Z,100878.66
2023-02-02T06:48:45.314Z,100876.78
2023-02-02T06:51:18.559Z,100875.94
2023-02-02T06:53:50.538Z,100873.81
2023-02-02T06:56:28.432Z,100871.31
2023-02-02T06:58:59.303Z,100883.22
2023-02-02T07:01:30.199Z,100879.47
2023-02-02T07:04:01.022Z,100868.00
2023-02-02T07:06:31.928Z,100883.84
2023-02-02T07:09:03.568Z,100874.66
2023-02-02T07:11:37.354Z,100867.56
2023-02-02T07:14:10.387Z,100870.28
2023-02-02T07:16:44.403Z,100867.56
2023-02-02T07:19:15.241Z,100861.69
2023-02-02T07:21:46.615Z,100868.34
2023-02-02T07:24:18.038Z,100871.47
2023-02-02T07:26:48.626Z,100875.84
2023-02-02T07:29:21.614Z,100878.97
2023-02-02T07:31:52.809Z,100865.41
2023-02-02T07:34:23.823Z,100875.41
2023-02-02T07:36:56.422Z,100868.75
2023-02-02T07:39:27.232Z,100867.28
2023-02-02T07:41:58.236Z,100869.78
2023-02-02T07:44:37.757Z,100871.25
2023-02-02T07:47:09.271Z,100875.41
2023-02-02T07:49:40.027Z,100875.00
2023-02-02T07:52:10.486Z,100881.69
2023-02-02T07:54:41.038Z,100882.50
2023-02-02T07:57:14.124Z,100882.91
2023-02-02T07:59:44.760Z,100888.50
2023-02-02T08:02:15.232Z,100895.19
2023-02-02T08:04:46.386Z,100897.50
2023-02-02T08:07:17.635Z,100895.19
2023-02-02T08:09:49.508Z,100903.09
2023-02-02T08:12:24.883Z,100904.53
2023-02-02T08:14:56.744Z,100907.22
2023-02-02T08:17:30.489Z,100901.09
2023-02-02T08:20:01.291Z,100888.19
2023-02-02T08:22:35.676Z,100897.16
2023-02-02T08:25:06.670Z,100899.44
2023-02-02T08:27:39.159Z,100899.84
2023-02-02T08:30:10.871Z,100901.09
2023-02-02T08:32:41.384Z,100899.59
2023-02-02T08:35:11.889Z,100911.47
2023-02-02T08:37:42.686Z,100918.72
2023-02-02T08:40:14.292Z,100913.53
2023-02-02T08:42:47.190Z,100908.06
2023-02-02T08:46:01.996Z,100916.38
2023-02-02T08:48:11.977Z,100920.31
2023-02-02T08:50:43.008Z,100916.97
2023-02-02T08:53:13.589Z,100921.50
2023-02-02T08:55:47.040Z,100928.59
2023-02-02T08:58:17.690Z,100927.94
2023-02-02T09:00:51.755Z,100934.19
2023-02-02T09:03:23.520Z,100932.72
2023-02-02T09:05:53.917Z,100928.78
2023-02-02T09:08:24.641Z,100935.00
2023-02-02T09:10:55.772Z,100932.03
2023-02-02T09:13:26.897Z,100944.53
2023-02-02T09:16:01.937Z,100941.00
2023-02-02T09:18:32.690Z,100945.13
2023-02-02T09:21:06.382Z,100951.56
2023-02-02T09:23:39.428Z,100959.88
2023-02-02T09:26:16.284Z,100959.44
2023-02-02T09:28:55.642Z,100960.72
2023-02-02T09:31:28.123Z,100972.84
2023-02-02T09:34:05.315Z,100964.84
2023-02-02T09:36:36.160Z,100974.00
2023-02-02T09:39:08.496Z,100966.28
2023-02-02T09:41:41.845Z,100979.34
2023-02-02T09:44:36.672Z,100980.19
2023-02-02T09:47:39.487Z,100979.72
2023-02-02T09:50:41.539Z,100979.81
2023-02-02T09:53:14.932Z,100988.50
2023-02-02T09:55:52.254Z,100987.28
2023-02-02T09:58:34.472Z,100999.72
2023-02-02T10:01:21.820Z,101001.78
2023-02-02T10:04:11.765Z,100998.81
2023-02-02T10:06:47.918Z,101004.72
2023-02-02T10:09:27.448Z,101012.41
2023-02-02T10:12:18.813Z,101017.16
2023-02-02T10:15:25.356Z,101022.94
2023-02-02T10:18:06.208Z,101028.72
2023-02-02T10:21:26.353Z,101026.19
2023-02-02T10:24:01.282Z,101031.34
2023-02-02T10:26:48.431Z,101043.38
2023-02-02T10:29:48.016Z,101048.53
2023-02-02T10:32:37.951Z,101052.91
2023-02-02T10:35:15.001Z,101046.84
2023-02-02T10:38:23.898Z,101052.25
2023-02-02T10:41:08.888Z,101065.34
2023-02-02T10:43:48.532Z,101064.69
2023-02-02T10:46:26.605Z,101065.13
2023-02-02T10:49:24.477Z,101069.06
2023-02-02T10:52:14.808Z,101073.63
2023-02-02T10:55:02.891Z,101049.88
2023-02-02T10:57:55.537Z,101051.66
2023-02-02T11:00:59.283Z,101060.69
2023-02-02T11:03:35.782Z,101063.28
2023-02-02T11:06:27.741Z,101066.91
2023-02-02T11:09:00.468Z,101062.91
2023-02-02T11:11:46.386Z,101060.59
2023-02-02T11:15:16.937Z,101069.81
2023-02-02T11:17:48.778Z,101070.09
2023-02-02T11:20:38.134Z,101078.47
2023-02-02T11:23:20.146Z,101080.81
2023-02-02T11:26:00.566Z,101082.13
2023-02-02T11:28:35.733Z,101090.91
2023-02-02T11:31:07.240Z,101088.91
2023-02-02T11:33:38.439Z,101084.75
2023-02-02T11:36:25.409Z,101105.78
2023-02-02T11:39:21.850Z,101113.06
2023-02-02T11:41:53.138Z,101118.38
2023-02-02T11:44:29.736Z,101131.50
2023-02-02T11:47:01.706Z,101125.06
2023-02-02T11:49:34.914Z,101129.47
2023-02-02T11:52:18.346Z,101129.66
2023-02-02T11:54:51.796Z,101138.59
2023-02-02T11:57:24.134Z,101136.63
2023-02-02T12:00:12.717Z,101137.94
2023-02-02T12:02:52.314Z,101137.19
2023-02-02T12:05:24.676Z,101143.53
2023-02-02T12:07:56.077Z,101138.59
2023-02-02T12:10:44.953Z,101140.72
2023-02-02T12:13:30.403Z,101147.59
2023-02-02T12:16:10.479Z,101146.13
2023-02-02T12:18:46.785Z,101144.47
2023-02-02T12:21:54.930Z,101146.78
2023-02-02T12:24:37.602Z,101146.59
2023-02-02T12:27:32.548Z,101142.69
2023-02-02T12:30:25.556Z,101144.09
2023-02-02T12:33:23.101Z,101144.09
2023-02-02T12:36:12.724Z,101135.97
2023-02-02T12:38:59.230Z,101138.47
2023-02-02T12:42:03.406Z,101146.03
2023-02-02T12:44:51.697Z,101139.13
2023-02-02T12:47:29.650Z,101136.63
2023-02-02T12:50:06.642Z,101126.56
2023-02-02T12:52:48.230Z,101132.34
2023-02-02T12:55:25.522Z,101128.63
2023-02-02T12:58:05.195Z,101136.44
2023-02-02T13:01:06.203Z,101142.13
2023-02-02T13:03:47.273Z,101148.13
2023-02-02T13:06:35.163Z,101142.88
2023-02-02T13:09:14.360Z,101143.63
2023-02-02T13:12:00.009Z,101150.53
2023-02-02T13:14:47.137Z,101142.16
2023-02-02T13:17:24.081Z,101154.16
2023-02-02T13:19:59.966Z,101157.88
2023-02-02T13:22:35.746Z,101169.06
2023-02-02T13:25:12.086Z,101166.94
2023-02-02T13:27:43.652Z,101163.47
2023-02-02T13:30:36.011Z,101167.59
2023-02-02T13:33:24.824Z,101164.97
2023-02-02T13:36:08.105Z,101170.38
2023-02-02T13:38:43.125Z,101168.53
2023-02-02T13:41:14.468Z,101153.50
2023-02-02T13:44:26.128Z,101162.47
2023-02-02T13:47:07.768Z,101161.63
2023-02-02T13:49:44.250Z,101157.81
2023-02-02T13:52:43.070Z,101154.16
2023-02-02T13:55:17.533Z,101158.25
2023-02-02T13:57:53.199Z,101164.03
2023-02-02T14:00:27.825Z,101168.63
2023-02-02T14:03:07.425Z,101164.41
2023-02-02T14:05:43.432Z,101164.41
2023-02-02T14:08:20.215Z,101167.31
2023-02-02T14:10:53.539Z,101160.59
2023-02-02T14:13:45.401Z,101156.66
2023-02-02T14:16:43.935Z,101158.56
2023-02-02T14:19:30.370Z,101152.28
2023-02-02T14:22:06.962Z,101154.34
2023-02-02T14:24:38.434Z,101151.63
2023-02-02T14:27:09.388Z,101154.16
2023-02-02T14:29:48.550Z,101153.16
2023-02-02T14:32:29.379Z,101153.97
2023-02-02T14:35:15.906Z,101159.38
2023-02-02T14:38:05.869Z,101162.72
2023-02-02T14:41:05.722Z,101156.50
2023-02-02T14:43:51.939Z,101162.72
2023-02-02T14:46:35.709Z,101158.34
2023-02-02T14:49:08.035Z,101153.97
2023-02-02T14:51:49.442Z,101148.56
2023-02-02T14:54:41.867Z,101149.41
2023-02-02T14:57:30.180Z,101146.50
2023-02-02T15:00:04.729Z,101150.63
2023-02-02T15:02:39.559Z,101142.34
2023-02-02T15:05:31.658Z,101142.13
2023-02-02T15:08:16.926Z,101141.47
2023-02-02T15:10:55.551Z,101136.06
2023-02-02T15:13:30.422Z,101136.06
2023-02-02T15:16:14.899Z,101136.06
2023-02-02T15:18:53.819Z,101132.72
2023-02-02T15:21:24.797Z,101135.63
2023-02-02T15:23:55.968Z,101138.66
2023-02-02T15:26:36.239Z,101136.78
2023-02-02T15:29:17.941Z,101130.72
2023-02-02T15:31:51.287Z,101137.16
2023-02-02T15:34:44.215Z,101135.47
2023-02-02T15:37:21.560Z,101133.78
2023-02-02T15:39:59.119Z,101138.53
2023-02-02T15:42:54.840Z,101135.47
2023-02-02T15:45:44.281Z,101147.03
2023-02-02T15:48:32.201Z,101135.75
2023-02-02T15:51:18.703Z,101137.44
2023-02-02T15:53:53.246Z,101128.19
2023-02-02T15:56:26.038Z,101127.00
2023-02-02T15:58:59.593Z,101121.75
2023-02-02T16:01:33.927Z,101121.97
2023-02-02T16:04:28.221Z,101118.91
2023-02-02T16:06:59.148Z,101120.09
2023-02-02T16:09:36.095Z,101116.38
2023-02-02T16:12:09.929Z,101119.06
2023-02-02T16:14:40.964Z,101118.41
2023-02-02T16:17:30.087Z,101108.81
2023-02-02T16:20:09.448Z,101107.88
2023-02-02T16:22:41.303Z,101108.41
2023-02-02T16:25:18.076Z,101100.31
2023-02-02T16:27:49.639Z,101099.97
2023-02-02T16:30:46.875Z,101100.63
2023-02-02T16:33:35.467Z,101103.41
2023-02-02T16:36:32.911Z,101105.28
2023-02-02T16:39:17.148Z,101101.28
2023-02-02T16:41:53.026Z,101096.22
2023-02-02T16:44:34.219Z,101092.50
2023-02-02T16:47:05.359Z,101084.13
2023-02-02T16:49:36.118Z,101084.94
2023-02-02T16:52:18.468Z,101081.59
2023-02-02T16:54:54.462Z,101080.09
2023-02-02T16:57:33.971Z,101079.44
2023-02-02T17:00:08.448Z,101079.81
2023-02-02T17:02:41.129Z,101079.16
2023-02-02T17:05:23.263Z,101074.41
2023-02-02T17:07:59.500Z,101065.00
2023-02-02T17:10:37.463Z,101067.69
2023-02-02T17:13:33.277Z,101062.97
2023-02-02T17:16:04.560Z,101063.88
2023-02-02T17:18:35.196Z,101067.19
2023-02-02T17:21:25.120Z,101051.00
2023-02-02T17:23:55.521Z,101053.09
2023-02-02T17:26:25.913Z,101042.66
2023-02-02T17:28:57.622Z,101038.44
2023-02-02T17:31:28.490Z,101041.13
2023-02-02T17:33:58.866Z,101038.63
2023-02-02T17:36:30.217Z,101046.53
2023-02-02T17:39:00.555Z,101044.84
2023-02-02T17:41:30.973Z,101043.00
2023-02-02T17:44:01.800Z,101037.97
2023-02-02T17:46:33.379Z,101044.56
2023-02-02T17:49:03.966Z,101041.50
2023-02-02T17:51:42.050Z,101049.97
2023-02-02T17:54:13.817Z,101048.59
2023-02-02T17:56:45.021Z,101035.81
2023-02-02T17:59:15.277Z,101029.72
2023-02-02T18:01:46.635Z,101039.84
2023-02-02T18:04:17.675Z,101026.56
2023-02-02T18:06:48.046Z,101031.09
2023-02-02T18:09:19.105Z,101029.44
2023-02-02T18:11:50.819Z,101028.75
2023-02-02T18:14:21.526Z,101025.03
2023-02-02T18:16:52.106Z,101032.31
2023-02-02T18:19:22.295Z,101030.81
2023-02-02T18:21:53.223Z,101027.44
2023-02-02T18:24:23.377Z,101025.59
2023-02-02T18:26:53.921Z,101021.38
2023-02-02T18:29:25.153Z,101025.09
2023-02-02T18:31:55.727Z,101013.66
2023-02-02T18:34:26.920Z,101028.16
2023-02-02T18:36:57.266Z,101023.78
2023-02-02T18:39:28.299Z,101021.28
2023-02-02T18:41:59.716Z,101018.75
2023-02-02T18:44:30.522Z,101021.66
2023-02-02T18:47:00.934Z,101012.03
2023-02-02T18:49:31.786Z,101025.53
2023-02-02T18:52:03.336Z,101018.66
2023-02-02T18:54:36.596Z,101022.16
2023-02-02T18:57:06.825Z,101018.81
2023-02-02T18:59:37.328Z,101022.53
2023-02-02T19:02:09.528Z,101010.91
2023-02-02T19:04:40.364Z,101012.75
2023-02-02T19:07:28.996Z,101011.06
2023-02-02T19:10:02.209Z,101010.41
2023-02-02T19:12:32.798Z,101008.06
2023-02-02T19:15:04.394Z,101011.44
2023-02-02T19:17:34.807Z,101018.03
2023-02-02T19:20:23.462Z,101017.19
2023-02-02T19:23:19.427Z,101014.69
2023-02-02T19:25:52.321Z,101014.84
2023-02-02T19:28:30.106Z,101006.75
2023-02-02T19:31:03.006Z,101005.06
2023-02-02T19:33:50.292Z,101005.72
2023-02-02T19:36:26.302Z,101002.56
2023-02-02T19:39:21.182Z,100995.31
2023-02-02T19:41:52.491Z,100997.06
2023-02-02T19:44:24.727Z,100998.75
2023-02-02T19:46:57.655Z,101003.13
2023-02-02T19:49:28.293Z,100998.09
2023-02-02T19:52:00.386Z,101003.63
2023-02-02T19:54:37.644Z,101005.31
2023-02-02T19:57:17.043Z,101001.59
2023-02-02T19:59:49.958Z,101003.47
2023-02-02T20:02:56.686Z,100998.56
2023-02-02T20:05:34.836Z,101011.22
2023-02-02T20:08:25.061Z,100995.38
2023-02-02T20:10:57.702Z,101001.44
2023-02-02T20:13:33.914Z,101016.78
2023-02-02T20:16:05.962Z,101016.41
2023-02-02T20:19:10.822Z,101013.91
2023-02-02T20:21:45.260Z,101008.53
2023-02-02T20:24:19.961Z,101004.16
2023-02-02T20:27:09.772Z,101009.53
2023-02-02T20:29:44.415Z,101014.78
2023-02-02T20:32:27.448Z,101009.22
2023-02-02T20:35:00.176Z,101014.63
2023-02-02T20:37:37.601Z,101008.38
2023-02-02T20:40:26.751Z,101015.94
2023-02-02T20:42:59.285Z,101007.72
2023-02-02T20:45:29.974Z,101017.47
2023-02-02T20:48:00.719Z,101011.63
2023-02-02T20:50:31.032Z,101017.00
2023-02-02T20:53:01.618Z,101010.28
2023-02-02T20:55:32.480Z,101005.91
2023-02-02T20:58:04.667Z,101009.78
2023-02-02T21:00:35.393Z,101006.94
2023-02-02T21:03:06.627Z,101004.91
2023-02-02T21:05:37.950Z,101005.25
2023-02-02T21:08:08.458Z,101009.97
2023-02-02T21:10:39.156Z,101017.19
2023-02-02T21:13:09.915Z,101016.38
2023-02-02T21:15:40.553Z,101030.88
2023-02-02T21:18:11.272Z,101032.88
2023-02-02T21:20:42.200Z,101026.66
2023-02-02T21:23:15.431Z,101030.53
2023-02-02T21:25:46.024Z,101046.03
2023-02-02T21:28:16.400Z,101051.44
2023-02-02T21:30:46.847Z,101054.28
2023-02-02T21:33:18.453Z,101059.66
2023-02-02T21:35:48.860Z,101067.94
2023-02-02T21:38:19.354Z,101055.13
2023-02-02T21:40:51.042Z,101070.63
2023-02-02T21:43:21.496Z,101068.78
2023-02-02T21:45:52.658Z,101074.34
2023-02-02T21:48:31.184Z,101073.34
2023-02-02T21:51:18.035Z,101088.50
2023-02-02T21:53:48.526Z,101092.22
2023-02-02T21:56:39.892Z,101080.41
2023-02-02T21:59:39.451Z,101095.72
2023-02-02T22:02:43.330Z,101100.41
2023-02-02T22:05:15.171Z,101106.34
2023-02-02T22:07:49.300Z,101102.44
2023-02-02T22:10:25.376Z,101109.34
2023-02-02T22:12:56.306Z,101105.66
2023-02-02T22:15:30.672Z,101107.69
2023-02-02T22:18:01.365Z,101111.03
2023-02-02T22:20:36.760Z,101115.75
2023-02-02T22:23:09.806Z,101113.75
2023-02-02T22:25:42.279Z,101119.78
2023-02-02T22:28:50.699Z,101126.16
2023-02-02T22:31:21.062Z,101134.28
2023-02-02T22:33:51.656Z,101128.88
2023-02-02T22:36:22.401Z,101141.34
2023-02-02T22:38:53.618Z,101139.66
2023-02-02T22:41:23.838Z,101141.34
2023-02-02T22:43:57.524Z,101144.38
2023-02-02T22:46:27.941Z,101149.78
2023-02-02T22:48:58.525Z,101154.31
2023-02-02T22:51:29.548Z,101159.88
2023-02-02T22:54:00.425Z,101154.47
2023-02-02T22:56:31.231Z,101148.75
2023-02-02T22:59:02.643Z,101153.28
2023-02-02T23:01:33.191Z,101167.28
2023-02-02T23:04:03.575Z,101167.97
2023-02-02T23:06:34.226Z,101166.59
2023-02-02T23:09:06.936Z,101159.34
2023-02-02T23:11:37.373Z,101174.00
2023-02-02T23:14:08.795Z,101168.97
2023-02-02T23:16:39.512Z,101173.66
2023-02-02T23:19:09.836Z,101166.94
2023-02-02T23:21:40.104Z,101172.34
2023-02-02T23:24:11.051Z,101163.91
2023-02-02T23:26:43.982Z,101173.81
2023-02-02T23:29:14.328Z,101180.41
2023-02-02T23:31:45.400Z,101174.16
2023-02-02T23:34:15.871Z,101182.44
2023-02-02T23:37:06.684Z,101182.44
2023-02-02T23:39:37.746Z,101187.81
2023-02-02T23:42:08.159Z,101185.44
2023-02-02T23:44:39.750Z,101188.63
2023-02-02T23:47:11.117Z,101190.66
2023-02-02T23:49:41.945Z,101192.19
2023-02-02T23:52:15.439Z,101192.84
2023-02-02T23:54:47.816Z,101199.25
2023-02-02T23:57:21.703Z,101200.59
2023-02-02T23:59:52.351Z,101207.34
